sensor_id;sensor_type;location;lat;lon;timestamp;P1;durP1;ratioP1;P2;durP2;ratioP2
13605;SDS011;6874;52.084;5.090;2024-03-22T00:01:50;26.60;;;25.80;;
13605;SDS011;6874;52.084;5.090;2024-03-22T00:04:16;27.27;;;26.37;;
13605;SDS011;6874;52.084;5.090;2024-03-22T00:06:42;26.90;;;26.03;;
13605;SDS011;6874;52.084;5.090;2024-03-22T00:09:09;27.03;;;26.13;;
13605;SDS011;6874;52.084;5.090;2024-03-22T00:11:35;27.43;;;26.53;;
13605;SDS011;6874;52.084;5.090;2024-03-22T00:14:01;27.30;;;26.40;;
13605;SDS011;6874;52.084;5.090;2024-03-22T00:16:27;31.60;;;30.60;;
13605;SDS011;6874;52.084;5.090;2024-03-22T00:18:53;29.70;;;28.77;;
13605;SDS011;6874;52.084;5.090;2024-03-22T00:21:18;28.53;;;27.63;;
13605;SDS011;6874;52.084;5.090;2024-03-22T00:23:45;29.10;;;28.20;;
13605;SDS011;6874;52.084;5.090;2024-03-22T00:26:10;27.73;;;26.83;;
13605;SDS011;6874;52.084;5.090;2024-03-22T00:28:36;28.17;;;27.27;;
13605;SDS011;6874;52.084;5.090;2024-03-22T00:31:02;30.07;;;29.13;;
13605;SDS011;6874;52.084;5.090;2024-03-22T00:33:27;29.40;;;28.50;;
13605;SDS011;6874;52.084;5.090;2024-03-22T00:35:53;30.47;;;29.47;;
13605;SDS011;6874;52.084;5.090;2024-03-22T00:38:18;30.90;;;29.90;;
13605;SDS011;6874;52.084;5.090;2024-03-22T00:40:44;29.97;;;29.00;;
13605;SDS011;6874;52.084;5.090;2024-03-22T00:43:10;27.03;;;26.17;;
13605;SDS011;6874;52.084;5.090;2024-03-22T00:45:35;27.97;;;27.07;;
13605;SDS011;6874;52.084;5.090;2024-03-22T00:48:01;27.93;;;27.03;;
13605;SDS011;6874;52.084;5.090;2024-03-22T00:50:26;27.77;;;26.87;;
13605;SDS011;6874;52.084;5.090;2024-03-22T00:52:52;28.23;;;27.33;;
13605;SDS011;6874;52.084;5.090;2024-03-22T00:55:20;26.33;;;25.53;;
13605;SDS011;6874;52.084;5.090;2024-03-22T00:57:46;24.77;;;23.97;;
13605;SDS011;6874;52.084;5.090;2024-03-22T01:00:11;26.13;;;25.33;;
13605;SDS011;6874;52.084;5.090;2024-03-22T01:02:38;23.80;;;23.07;;
13605;SDS011;6874;52.084;5.090;2024-03-22T01:05:04;24.17;;;23.40;;
13605;SDS011;6874;52.084;5.090;2024-03-22T01:07:29;24.87;;;24.07;;
13605;SDS011;6874;52.084;5.090;2024-03-22T01:09:55;22.30;;;21.60;;
13605;SDS011;6874;52.084;5.090;2024-03-22T01:12:20;23.50;;;22.80;;
13605;SDS011;6874;52.084;5.090;2024-03-22T01:14:46;20.63;;;19.97;;
13605;SDS011;6874;52.084;5.090;2024-03-22T01:17:11;17.30;;;16.80;;
13605;SDS011;6874;52.084;5.090;2024-03-22T01:19:37;18.73;;;18.13;;
13605;SDS011;6874;52.084;5.090;2024-03-22T01:22:02;19.03;;;18.43;;
13605;SDS011;6874;52.084;5.090;2024-03-22T01:24:28;18.23;;;17.63;;
13605;SDS011;6874;52.084;5.090;2024-03-22T01:26:54;18.13;;;17.57;;
13605;SDS011;6874;52.084;5.090;2024-03-22T01:29:20;17.30;;;16.80;;
13605;SDS011;6874;52.084;5.090;2024-03-22T01:31:46;18.33;;;17.73;;
13605;SDS011;6874;52.084;5.090;2024-03-22T01:34:12;20.03;;;19.43;;
13605;SDS011;6874;52.084;5.090;2024-03-22T01:36:38;21.67;;;20.97;;
13605;SDS011;6874;52.084;5.090;2024-03-22T01:39:04;19.97;;;19.37;;
13605;SDS011;6874;52.084;5.090;2024-03-22T01:41:29;20.40;;;19.80;;
13605;SDS011;6874;52.084;5.090;2024-03-22T01:43:55;20.53;;;19.93;;
13605;SDS011;6874;52.084;5.090;2024-03-22T01:46:23;22.53;;;21.83;;
13605;SDS011;6874;52.084;5.090;2024-03-22T01:48:48;21.73;;;21.03;;
13605;SDS011;6874;52.084;5.090;2024-03-22T01:51:14;22.00;;;21.30;;
13605;SDS011;6874;52.084;5.090;2024-03-22T01:53:40;21.40;;;20.70;;
13605;SDS011;6874;52.084;5.090;2024-03-22T01:56:06;22.63;;;21.93;;
13605;SDS011;6874;52.084;5.090;2024-03-22T01:58:32;23.47;;;22.77;;
13605;SDS011;6874;52.084;5.090;2024-03-22T02:00:58;23.53;;;22.83;;
13605;SDS011;6874;52.084;5.090;2024-03-22T02:03:24;22.40;;;21.70;;
13605;SDS011;6874;52.084;5.090;2024-03-22T02:05:49;23.10;;;22.40;;
13605;SDS011;6874;52.084;5.090;2024-03-22T02:08:15;24.93;;;24.13;;
13605;SDS011;6874;52.084;5.090;2024-03-22T02:10:40;23.50;;;22.77;;
13605;SDS011;6874;52.084;5.090;2024-03-22T02:13:06;24.67;;;23.90;;
13605;SDS011;6874;52.084;5.090;2024-03-22T02:15:32;24.27;;;23.50;;
13605;SDS011;6874;52.084;5.090;2024-03-22T02:17:58;24.40;;;23.63;;
13605;SDS011;6874;52.084;5.090;2024-03-22T02:20:23;24.17;;;23.40;;
13605;SDS011;6874;52.084;5.090;2024-03-22T02:22:49;21.03;;;20.37;;
13605;SDS011;6874;52.084;5.090;2024-03-22T02:25:14;21.07;;;20.40;;
13605;SDS011;6874;52.084;5.090;2024-03-22T02:27:40;22.20;;;21.53;;
13605;SDS011;6874;52.084;5.090;2024-03-22T02:30:06;22.10;;;21.40;;
13605;SDS011;6874;52.084;5.090;2024-03-22T02:32:32;23.70;;;22.97;;
13605;SDS011;6874;52.084;5.090;2024-03-22T02:34:58;23.80;;;23.03;;
13605;SDS011;6874;52.084;5.090;2024-03-22T02:37:23;23.33;;;22.60;;
13605;SDS011;6874;52.084;5.090;2024-03-22T02:39:49;23.30;;;22.57;;
13605;SDS011;6874;52.084;5.090;2024-03-22T02:42:14;22.20;;;21.50;;
13605;SDS011;6874;52.084;5.090;2024-03-22T02:44:40;23.87;;;23.13;;
13605;SDS011;6874;52.084;5.090;2024-03-22T02:47:10;24.50;;;23.77;;
13605;SDS011;6874;52.084;5.090;2024-03-22T02:49:38;23.27;;;22.53;;
13605;SDS011;6874;52.084;5.090;2024-03-22T02:52:04;22.97;;;22.27;;
13605;SDS011;6874;52.084;5.090;2024-03-22T02:54:30;23.20;;;22.47;;
13605;SDS011;6874;52.084;5.090;2024-03-22T02:56:55;25.37;;;24.57;;
13605;SDS011;6874;52.084;5.090;2024-03-22T02:59:21;22.83;;;22.13;;
13605;SDS011;6874;52.084;5.090;2024-03-22T03:01:46;24.07;;;23.30;;
13605;SDS011;6874;52.084;5.090;2024-03-22T03:04:12;25.03;;;24.23;;
13605;SDS011;6874;52.084;5.090;2024-03-22T03:06:38;25.63;;;24.83;;
13605;SDS011;6874;52.084;5.090;2024-03-22T03:09:03;25.30;;;24.50;;
13605;SDS011;6874;52.084;5.090;2024-03-22T03:11:35;28.73;;;27.83;;
13605;SDS011;6874;52.084;5.090;2024-03-22T03:14:02;26.30;;;25.47;;
13605;SDS011;6874;52.084;5.090;2024-03-22T03:16:27;25.53;;;24.73;;
13605;SDS011;6874;52.084;5.090;2024-03-22T03:18:53;26.03;;;25.23;;
13605;SDS011;6874;52.084;5.090;2024-03-22T03:21:18;26.47;;;25.63;;
13605;SDS011;6874;52.084;5.090;2024-03-22T03:23:44;24.43;;;23.63;;
13605;SDS011;6874;52.084;5.090;2024-03-22T03:26:09;25.63;;;24.83;;
13605;SDS011;6874;52.084;5.090;2024-03-22T03:28:35;24.50;;;23.70;;
13605;SDS011;6874;52.084;5.090;2024-03-22T03:31:00;26.03;;;25.23;;
13605;SDS011;6874;52.084;5.090;2024-03-22T03:33:26;25.70;;;24.90;;
13605;SDS011;6874;52.084;5.090;2024-03-22T03:35:51;27.03;;;26.17;;
13605;SDS011;6874;52.084;5.090;2024-03-22T03:38:17;25.43;;;24.63;;
13605;SDS011;6874;52.084;5.090;2024-03-22T03:40:42;25.57;;;24.77;;
13605;SDS011;6874;52.084;5.090;2024-03-22T03:43:08;23.40;;;22.70;;
13605;SDS011;6874;52.084;5.090;2024-03-22T03:45:36;24.77;;;23.97;;
13605;SDS011;6874;52.084;5.090;2024-03-22T03:48:02;25.30;;;24.50;;
13605;SDS011;6874;52.084;5.090;2024-03-22T03:50:28;24.67;;;23.87;;
13605;SDS011;6874;52.084;5.090;2024-03-22T03:52:53;26.03;;;25.23;;
13605;SDS011;6874;52.084;5.090;2024-03-22T03:55:19;21.60;;;20.90;;
13605;SDS011;6874;52.084;5.090;2024-03-22T03:57:44;21.07;;;20.43;;
13605;SDS011;6874;52.084;5.090;2024-03-22T04:00:10;22.90;;;22.20;;
13605;SDS011;6874;52.084;5.090;2024-03-22T04:02:36;22.60;;;21.90;;
13605;SDS011;6874;52.084;5.090;2024-03-22T04:05:01;21.63;;;20.97;;
13605;SDS011;6874;52.084;5.090;2024-03-22T04:07:27;23.90;;;23.17;;
13605;SDS011;6874;52.084;5.090;2024-03-22T04:09:54;22.30;;;21.60;;
13605;SDS011;6874;52.084;5.090;2024-03-22T04:12:19;25.50;;;24.70;;
13605;SDS011;6874;52.084;5.090;2024-03-22T04:14:45;23.50;;;22.77;;
13605;SDS011;6874;52.084;5.090;2024-03-22T04:17:10;23.30;;;22.57;;
13605;SDS011;6874;52.084;5.090;2024-03-22T04:19:36;25.47;;;24.67;;
13605;SDS011;6874;52.084;5.090;2024-03-22T04:22:02;23.10;;;22.37;;
13605;SDS011;6874;52.084;5.090;2024-03-22T04:24:28;23.00;;;22.27;;
13605;SDS011;6874;52.084;5.090;2024-03-22T04:26:54;23.27;;;22.53;;
13605;SDS011;6874;52.084;5.090;2024-03-22T04:29:19;21.23;;;20.60;;
13605;SDS011;6874;52.084;5.090;2024-03-22T04:31:45;23.77;;;23.03;;
13605;SDS011;6874;52.084;5.090;2024-03-22T04:34:10;24.73;;;23.97;;
13605;SDS011;6874;52.084;5.090;2024-03-22T04:36:36;23.53;;;22.80;;
13605;SDS011;6874;52.084;5.090;2024-03-22T04:39:01;25.43;;;24.63;;
13605;SDS011;6874;52.084;5.090;2024-03-22T04:41:28;24.37;;;23.60;;
13605;SDS011;6874;52.084;5.090;2024-03-22T04:43:54;28.23;;;27.33;;
13605;SDS011;6874;52.084;5.090;2024-03-22T04:46:19;22.23;;;21.53;;
13605;SDS011;6874;52.084;5.090;2024-03-22T04:48:45;24.67;;;23.90;;
13605;SDS011;6874;52.084;5.090;2024-03-22T04:51:10;21.93;;;21.23;;
13605;SDS011;6874;52.084;5.090;2024-03-22T04:53:36;25.83;;;25.03;;
13605;SDS011;6874;52.084;5.090;2024-03-22T04:56:01;26.00;;;25.17;;
13605;SDS011;6874;52.084;5.090;2024-03-22T04:58:27;27.03;;;26.20;;
13605;SDS011;6874;52.084;5.090;2024-03-22T05:00:56;24.73;;;23.97;;
13605;SDS011;6874;52.084;5.090;2024-03-22T05:03:22;24.63;;;23.87;;
13605;SDS011;6874;52.084;5.090;2024-03-22T05:05:49;26.37;;;25.53;;
13605;SDS011;6874;52.084;5.090;2024-03-22T05:08:15;25.40;;;24.60;;
13605;SDS011;6874;52.084;5.090;2024-03-22T05:10:41;28.63;;;27.73;;
13605;SDS011;6874;52.084;5.090;2024-03-22T05:13:07;28.23;;;27.33;;
13605;SDS011;6874;52.084;5.090;2024-03-22T05:15:32;27.53;;;26.67;;
13605;SDS011;6874;52.084;5.090;2024-03-22T05:17:58;28.03;;;27.13;;
13605;SDS011;6874;52.084;5.090;2024-03-22T05:20:24;25.90;;;25.10;;
13605;SDS011;6874;52.084;5.090;2024-03-22T05:22:50;27.37;;;26.50;;
13605;SDS011;6874;52.084;5.090;2024-03-22T05:25:15;27.20;;;26.33;;
13605;SDS011;6874;52.084;5.090;2024-03-22T05:27:41;27.07;;;26.20;;
13605;SDS011;6874;52.084;5.090;2024-03-22T05:30:07;26.07;;;25.27;;
13605;SDS011;6874;52.084;5.090;2024-03-22T05:32:34;26.00;;;25.17;;
13605;SDS011;6874;52.084;5.090;2024-03-22T05:35:00;25.13;;;24.33;;
13605;SDS011;6874;52.084;5.090;2024-03-22T05:37:25;22.90;;;22.20;;
13605;SDS011;6874;52.084;5.090;2024-03-22T05:39:51;25.50;;;24.70;;
13605;SDS011;6874;52.084;5.090;2024-03-22T05:42:17;25.23;;;24.47;;
13605;SDS011;6874;52.084;5.090;2024-03-22T05:44:43;22.70;;;22.00;;
13605;SDS011;6874;52.084;5.090;2024-03-22T05:47:10;26.77;;;25.93;;
13605;SDS011;6874;52.084;5.090;2024-03-22T05:49:35;26.73;;;25.90;;
13605;SDS011;6874;52.084;5.090;2024-03-22T05:52:01;27.40;;;26.53;;
13605;SDS011;6874;52.084;5.090;2024-03-22T05:54:26;28.27;;;27.40;;
13605;SDS011;6874;52.084;5.090;2024-03-22T05:56:52;29.43;;;28.50;;
13605;SDS011;6874;52.084;5.090;2024-03-22T05:59:17;28.90;;;27.97;;
13605;SDS011;6874;52.084;5.090;2024-03-22T06:01:43;26.33;;;25.50;;
13605;SDS011;6874;52.084;5.090;2024-03-22T06:04:08;27.03;;;26.17;;
13605;SDS011;6874;52.084;5.090;2024-03-22T06:06:34;26.17;;;25.33;;
13605;SDS011;6874;52.084;5.090;2024-03-22T06:09:01;28.00;;;27.13;;
13605;SDS011;6874;52.084;5.090;2024-03-22T06:11:33;27.93;;;27.03;;
13605;SDS011;6874;52.084;5.090;2024-03-22T06:13:59;26.97;;;26.13;;
13605;SDS011;6874;52.084;5.090;2024-03-22T06:16:24;27.00;;;26.17;;
13605;SDS011;6874;52.084;5.090;2024-03-22T06:18:50;27.67;;;26.80;;
13605;SDS011;6874;52.084;5.090;2024-03-22T06:21:16;30.03;;;29.10;;
13605;SDS011;6874;52.084;5.090;2024-03-22T06:23:47;27.10;;;26.23;;
13605;SDS011;6874;52.084;5.090;2024-03-22T06:26:16;31.00;;;30.00;;
13605;SDS011;6874;52.084;5.090;2024-03-22T06:28:42;30.93;;;29.97;;
13605;SDS011;6874;52.084;5.090;2024-03-22T06:31:08;29.77;;;28.80;;
13605;SDS011;6874;52.084;5.090;2024-03-22T06:33:33;25.87;;;25.07;;
13605;SDS011;6874;52.084;5.090;2024-03-22T06:35:59;27.60;;;26.70;;
13605;SDS011;6874;52.084;5.090;2024-03-22T06:38:25;24.60;;;23.80;;
13605;SDS011;6874;52.084;5.090;2024-03-22T06:40:51;24.37;;;23.60;;
13605;SDS011;6874;52.084;5.090;2024-03-22T06:43:17;21.97;;;21.27;;
13605;SDS011;6874;52.084;5.090;2024-03-22T06:45:42;20.43;;;19.80;;
13605;SDS011;6874;52.084;5.090;2024-03-22T06:48:08;19.73;;;19.10;;
13605;SDS011;6874;52.084;5.090;2024-03-22T06:50:33;17.40;;;16.90;;
13605;SDS011;6874;52.084;5.090;2024-03-22T06:52:59;18.43;;;17.87;;
13605;SDS011;6874;52.084;5.090;2024-03-22T06:55:24;18.57;;;17.97;;
13605;SDS011;6874;52.084;5.090;2024-03-22T06:57:50;20.03;;;19.43;;
13605;SDS011;6874;52.084;5.090;2024-03-22T07:00:17;19.87;;;19.27;;
13605;SDS011;6874;52.084;5.090;2024-03-22T07:02:43;20.10;;;19.50;;
13605;SDS011;6874;52.084;5.090;2024-03-22T07:05:09;21.73;;;21.03;;
13605;SDS011;6874;52.084;5.090;2024-03-22T07:07:35;21.00;;;20.37;;
13605;SDS011;6874;52.084;5.090;2024-03-22T07:10:01;22.43;;;21.73;;
13605;SDS011;6874;52.084;5.090;2024-03-22T07:12:28;21.27;;;20.60;;
13605;SDS011;6874;52.084;5.090;2024-03-22T07:14:54;20.13;;;19.53;;
13605;SDS011;6874;52.084;5.090;2024-03-22T07:17:20;20.20;;;19.60;;
13605;SDS011;6874;52.084;5.090;2024-03-22T07:19:49;21.97;;;21.27;;
13605;SDS011;6874;52.084;5.090;2024-03-22T07:22:16;20.97;;;20.30;;
13605;SDS011;6874;52.084;5.090;2024-03-22T07:24:42;20.33;;;19.73;;
13605;SDS011;6874;52.084;5.090;2024-03-22T07:27:07;21.40;;;20.73;;
13605;SDS011;6874;52.084;5.090;2024-03-22T07:29:33;22.87;;;22.17;;
13605;SDS011;6874;52.084;5.090;2024-03-22T07:31:58;23.47;;;22.77;;
13605;SDS011;6874;52.084;5.090;2024-03-22T07:34:24;19.83;;;19.23;;
13605;SDS011;6874;52.084;5.090;2024-03-22T07:36:49;20.93;;;20.30;;
13605;SDS011;6874;52.084;5.090;2024-03-22T07:39:15;19.80;;;19.20;;
13605;SDS011;6874;52.084;5.090;2024-03-22T07:41:40;19.53;;;18.93;;
13605;SDS011;6874;52.084;5.090;2024-03-22T07:44:06;22.50;;;21.80;;
13605;SDS011;6874;52.084;5.090;2024-03-22T07:46:32;25.27;;;24.47;;
13605;SDS011;6874;52.084;5.090;2024-03-22T07:48:58;28.53;;;27.63;;
13605;SDS011;6874;52.084;5.090;2024-03-22T07:51:24;29.70;;;28.80;;
13605;SDS011;6874;52.084;5.090;2024-03-22T07:53:50;32.60;;;31.57;;
13605;SDS011;6874;52.084;5.090;2024-03-22T07:56:17;29.97;;;29.00;;
13605;SDS011;6874;52.084;5.090;2024-03-22T07:58:42;25.40;;;24.60;;
13605;SDS011;6874;52.084;5.090;2024-03-22T08:01:08;21.40;;;20.70;;
13605;SDS011;6874;52.084;5.090;2024-03-22T08:03:34;21.33;;;20.63;;
13605;SDS011;6874;52.084;5.090;2024-03-22T08:05:59;19.60;;;19.00;;
13605;SDS011;6874;52.084;5.090;2024-03-22T08:08:25;19.33;;;18.73;;
13605;SDS011;6874;52.084;5.090;2024-03-22T08:10:50;18.77;;;18.17;;
13605;SDS011;6874;52.084;5.090;2024-03-22T08:13:16;19.97;;;19.37;;
13605;SDS011;6874;52.084;5.090;2024-03-22T08:15:42;19.43;;;18.83;;
13605;SDS011;6874;52.084;5.090;2024-03-22T08:18:10;20.00;;;19.40;;
13605;SDS011;6874;52.084;5.090;2024-03-22T08:20:36;18.60;;;18.00;;
13605;SDS011;6874;52.084;5.090;2024-03-22T08:23:03;20.70;;;20.10;;
13605;SDS011;6874;52.084;5.090;2024-03-22T08:25:29;18.20;;;17.60;;
13605;SDS011;6874;52.084;5.090;2024-03-22T08:27:55;19.57;;;18.97;;
13605;SDS011;6874;52.084;5.090;2024-03-22T08:30:24;19.53;;;18.93;;
13605;SDS011;6874;52.084;5.090;2024-03-22T08:32:52;20.37;;;19.77;;
13605;SDS011;6874;52.084;5.090;2024-03-22T08:35:18;21.30;;;20.60;;
13605;SDS011;6874;52.084;5.090;2024-03-22T08:37:43;20.67;;;20.07;;
13605;SDS011;6874;52.084;5.090;2024-03-22T08:40:09;20.97;;;20.27;;
13605;SDS011;6874;52.084;5.090;2024-03-22T08:42:35;20.33;;;19.73;;
13605;SDS011;6874;52.084;5.090;2024-03-22T08:45:01;19.13;;;18.53;;
13605;SDS011;6874;52.084;5.090;2024-03-22T08:47:29;19.97;;;19.37;;
13605;SDS011;6874;52.084;5.090;2024-03-22T08:49:55;20.67;;;20.07;;
13605;SDS011;6874;52.084;5.090;2024-03-22T08:52:22;20.27;;;19.67;;
13605;SDS011;6874;52.084;5.090;2024-03-22T08:54:49;20.03;;;19.43;;
13605;SDS011;6874;52.084;5.090;2024-03-22T08:57:15;21.30;;;20.60;;
13605;SDS011;6874;52.084;5.090;2024-03-22T08:59:40;20.97;;;20.30;;
13605;SDS011;6874;52.084;5.090;2024-03-22T09:02:06;21.70;;;21.00;;
13605;SDS011;6874;52.084;5.090;2024-03-22T09:04:31;21.93;;;21.23;;
13605;SDS011;6874;52.084;5.090;2024-03-22T09:06:57;21.17;;;20.50;;
13605;SDS011;6874;52.084;5.090;2024-03-22T09:09:23;21.27;;;20.60;;
13605;SDS011;6874;52.084;5.090;2024-03-22T09:11:49;22.37;;;21.67;;
13605;SDS011;6874;52.084;5.090;2024-03-22T09:14:14;23.70;;;23.00;;
13605;SDS011;6874;52.084;5.090;2024-03-22T09:16:40;25.03;;;24.23;;
13605;SDS011;6874;52.084;5.090;2024-03-22T09:19:05;33.83;;;32.67;;
13605;SDS011;6874;52.084;5.090;2024-03-22T09:21:31;30.47;;;29.47;;
13605;SDS011;6874;52.084;5.090;2024-03-22T09:23:57;35.47;;;34.30;;
13605;SDS011;6874;52.084;5.090;2024-03-22T09:26:23;57.60;;;55.70;;
13605;SDS011;6874;52.084;5.090;2024-03-22T09:28:48;75.50;;;73.00;;
13605;SDS011;6874;52.084;5.090;2024-03-22T09:31:15;86.90;;;84.00;;
13605;SDS011;6874;52.084;5.090;2024-03-22T09:33:42;90.77;;;87.73;;
13605;SDS011;6874;52.084;5.090;2024-03-22T09:36:08;83.90;;;81.03;;
13605;SDS011;6874;52.084;5.090;2024-03-22T09:38:34;86.33;;;83.37;;
13605;SDS011;6874;52.084;5.090;2024-03-22T09:40:59;77.13;;;74.47;;
13605;SDS011;6874;52.084;5.090;2024-03-22T09:43:26;83.77;;;80.90;;
13605;SDS011;6874;52.084;5.090;2024-03-22T09:45:53;80.13;;;77.43;;
13605;SDS011;6874;52.084;5.090;2024-03-22T09:48:20;79.37;;;76.67;;
13605;SDS011;6874;52.084;5.090;2024-03-22T09:50:47;84.33;;;81.43;;
13605;SDS011;6874;52.084;5.090;2024-03-22T09:53:13;85.93;;;83.00;;
13605;SDS011;6874;52.084;5.090;2024-03-22T09:55:42;84.63;;;81.73;;
13605;SDS011;6874;52.084;5.090;2024-03-22T09:58:08;87.87;;;84.83;;
13605;SDS011;6874;52.084;5.090;2024-03-22T10:00:35;87.50;;;84.50;;
13605;SDS011;6874;52.084;5.090;2024-03-22T10:03:00;91.40;;;88.27;;
13605;SDS011;6874;52.084;5.090;2024-03-22T10:05:27;93.33;;;90.13;;
13605;SDS011;6874;52.084;5.090;2024-03-22T10:07:53;101.20;;;97.77;;
13605;SDS011;6874;52.084;5.090;2024-03-22T10:10:19;96.77;;;93.50;;
13605;SDS011;6874;52.084;5.090;2024-03-22T10:12:44;99.10;;;95.70;;
13605;SDS011;6874;52.084;5.090;2024-03-22T10:15:10;94.20;;;90.97;;
13605;SDS011;6874;52.084;5.090;2024-03-22T10:17:37;90.13;;;87.07;;
13605;SDS011;6874;52.084;5.090;2024-03-22T10:20:04;86.17;;;83.20;;
13605;SDS011;6874;52.084;5.090;2024-03-22T10:22:37;83.23;;;80.40;;
13605;SDS011;6874;52.084;5.090;2024-03-22T10:25:06;79.37;;;76.67;;
13605;SDS011;6874;52.084;5.090;2024-03-22T10:27:31;85.30;;;82.40;;
13605;SDS011;6874;52.084;5.090;2024-03-22T10:29:57;84.97;;;82.10;;
13605;SDS011;6874;52.084;5.090;2024-03-22T10:32:23;77.17;;;74.57;;
13605;SDS011;6874;52.084;5.090;2024-03-22T10:34:49;78.30;;;75.67;;
13605;SDS011;6874;52.084;5.090;2024-03-22T10:37:15;68.73;;;66.40;;
13605;SDS011;6874;52.084;5.090;2024-03-22T10:39:41;70.07;;;67.73;;
13605;SDS011;6874;52.084;5.090;2024-03-22T10:42:09;76.97;;;74.43;;
13605;SDS011;6874;52.084;5.090;2024-03-22T10:44:36;81.23;;;78.53;;
13605;SDS011;6874;52.084;5.090;2024-03-22T10:47:01;83.90;;;81.10;;
13605;SDS011;6874;52.084;5.090;2024-03-22T10:49:30;83.77;;;80.97;;
13605;SDS011;6874;52.084;5.090;2024-03-22T10:52:02;87.40;;;84.47;;
13605;SDS011;6874;52.084;5.090;2024-03-22T10:54:32;86.03;;;83.17;;
13605;SDS011;6874;52.084;5.090;2024-03-22T10:57:05;94.87;;;91.67;;
13605;SDS011;6874;52.084;5.090;2024-03-22T10:59:36;94.73;;;91.53;;
13605;SDS011;6874;52.084;5.090;2024-03-22T11:02:03;90.03;;;87.00;;
13605;SDS011;6874;52.084;5.090;2024-03-22T11:04:29;96.47;;;93.20;;
13605;SDS011;6874;52.084;5.090;2024-03-22T11:06:58;102.20;;;98.70;;
13605;SDS011;6874;52.084;5.090;2024-03-22T11:09:25;110.17;;;106.43;;
13605;SDS011;6874;52.084;5.090;2024-03-22T11:11:52;101.87;;;98.40;;
13605;SDS011;6874;52.084;5.090;2024-03-22T11:14:18;104.80;;;101.23;;
13605;SDS011;6874;52.084;5.090;2024-03-22T11:16:45;105.53;;;101.97;;
13605;SDS011;6874;52.084;5.090;2024-03-22T11:19:11;104.60;;;101.07;;
13605;SDS011;6874;52.084;5.090;2024-03-22T11:21:37;106.23;;;102.63;;
13605;SDS011;6874;52.084;5.090;2024-03-22T11:24:04;104.13;;;100.60;;
13605;SDS011;6874;52.084;5.090;2024-03-22T11:26:30;100.50;;;97.13;;
13605;SDS011;6874;52.084;5.090;2024-03-22T11:28:55;101.33;;;97.90;;
13605;SDS011;6874;52.084;5.090;2024-03-22T11:31:21;106.70;;;103.13;;
13605;SDS011;6874;52.084;5.090;2024-03-22T11:33:52;99.07;;;95.70;;
13605;SDS011;6874;52.084;5.090;2024-03-22T11:36:24;103.83;;;100.33;;
13605;SDS011;6874;52.084;5.090;2024-03-22T11:38:50;94.73;;;91.53;;
13605;SDS011;6874;52.084;5.090;2024-03-22T11:41:18;96.50;;;93.20;;
13605;SDS011;6874;52.084;5.090;2024-03-22T11:43:48;95.23;;;91.97;;
13605;SDS011;6874;52.084;5.090;2024-03-22T11:46:14;89.67;;;86.60;;
13605;SDS011;6874;52.084;5.090;2024-03-22T11:48:41;86.00;;;83.03;;
13605;SDS011;6874;52.084;5.090;2024-03-22T11:51:07;88.50;;;85.40;;
13605;SDS011;6874;52.084;5.090;2024-03-22T11:53:34;89.80;;;86.70;;
13605;SDS011;6874;52.084;5.090;2024-03-22T11:56:00;87.33;;;84.33;;
13605;SDS011;6874;52.084;5.090;2024-03-22T11:58:28;89.93;;;86.83;;
13605;SDS011;6874;52.084;5.090;2024-03-22T12:00:55;90.10;;;87.00;;
13605;SDS011;6874;52.084;5.090;2024-03-22T12:03:23;85.87;;;82.93;;
13605;SDS011;6874;52.084;5.090;2024-03-22T12:05:49;87.63;;;84.63;;
13605;SDS011;6874;52.084;5.090;2024-03-22T12:08:16;88.83;;;85.77;;
13605;SDS011;6874;52.084;5.090;2024-03-22T12:10:42;87.93;;;84.93;;
13605;SDS011;6874;52.084;5.090;2024-03-22T12:13:08;94.80;;;91.57;;
13605;SDS011;6874;52.084;5.090;2024-03-22T12:15:34;95.07;;;91.83;;
13605;SDS011;6874;52.084;5.090;2024-03-22T12:18:00;93.90;;;90.70;;
13605;SDS011;6874;52.084;5.090;2024-03-22T12:20:26;90.47;;;87.37;;
13605;SDS011;6874;52.084;5.090;2024-03-22T12:22:52;88.07;;;85.07;;
13605;SDS011;6874;52.084;5.090;2024-03-22T12:25:17;89.20;;;86.10;;
13605;SDS011;6874;52.084;5.090;2024-03-22T12:27:43;92.30;;;89.10;;
13605;SDS011;6874;52.084;5.090;2024-03-22T12:30:09;88.93;;;85.87;;
13605;SDS011;6874;52.084;5.090;2024-03-22T12:32:36;91.67;;;88.50;;
13605;SDS011;6874;52.084;5.090;2024-03-22T12:35:01;94.13;;;90.87;;
13605;SDS011;6874;52.084;5.090;2024-03-22T12:37:27;91.83;;;88.67;;
13605;SDS011;6874;52.084;5.090;2024-03-22T12:39:52;88.93;;;85.87;;
13605;SDS011;6874;52.084;5.090;2024-03-22T12:42:19;92.70;;;89.53;;
13605;SDS011;6874;52.084;5.090;2024-03-22T12:44:45;86.63;;;83.63;;
13605;SDS011;6874;52.084;5.090;2024-03-22T12:47:10;81.60;;;78.80;;
13605;SDS011;6874;52.084;5.090;2024-03-22T12:49:36;84.57;;;81.63;;
13605;SDS011;6874;52.084;5.090;2024-03-22T12:52:01;85.07;;;82.13;;
13605;SDS011;6874;52.084;5.090;2024-03-22T12:54:27;84.67;;;81.77;;
13605;SDS011;6874;52.084;5.090;2024-03-22T12:56:53;86.33;;;83.37;;
13605;SDS011;6874;52.084;5.090;2024-03-22T12:59:18;86.90;;;83.93;;
13605;SDS011;6874;52.084;5.090;2024-03-22T13:01:44;88.33;;;85.33;;
13605;SDS011;6874;52.084;5.090;2024-03-22T13:04:10;86.93;;;83.93;;
13605;SDS011;6874;52.084;5.090;2024-03-22T13:06:35;84.73;;;81.87;;
13605;SDS011;6874;52.084;5.090;2024-03-22T13:09:01;84.70;;;81.80;;
13605;SDS011;6874;52.084;5.090;2024-03-22T13:11:29;85.23;;;82.33;;
13605;SDS011;6874;52.084;5.090;2024-03-22T13:13:56;86.13;;;83.20;;
13605;SDS011;6874;52.084;5.090;2024-03-22T13:16:22;86.77;;;83.80;;
13605;SDS011;6874;52.084;5.090;2024-03-22T13:18:50;87.00;;;84.00;;
13605;SDS011;6874;52.084;5.090;2024-03-22T13:21:16;88.70;;;85.70;;
13605;SDS011;6874;52.084;5.090;2024-03-22T13:23:42;89.80;;;86.73;;
13605;SDS011;6874;52.084;5.090;2024-03-22T13:26:08;88.77;;;85.73;;
13605;SDS011;6874;52.084;5.090;2024-03-22T13:28:33;84.97;;;82.07;;
13605;SDS011;6874;52.084;5.090;2024-03-22T13:31:08;87.87;;;84.87;;
13605;SDS011;6874;52.084;5.090;2024-03-22T13:33:34;87.83;;;84.83;;
13605;SDS011;6874;52.084;5.090;2024-03-22T13:36:00;84.73;;;81.83;;
13605;SDS011;6874;52.084;5.090;2024-03-22T13:38:26;87.90;;;84.87;;
13605;SDS011;6874;52.084;5.090;2024-03-22T13:40:54;85.67;;;82.77;;
13605;SDS011;6874;52.084;5.090;2024-03-22T13:43:28;86.83;;;83.87;;
13605;SDS011;6874;52.084;5.090;2024-03-22T13:45:54;88.03;;;85.03;;
13605;SDS011;6874;52.084;5.090;2024-03-22T13:48:23;91.10;;;88.00;;
13605;SDS011;6874;52.084;5.090;2024-03-22T13:50:56;97.27;;;93.93;;
13605;SDS011;6874;52.084;5.090;2024-03-22T13:53:22;96.00;;;92.70;;
13605;SDS011;6874;52.084;5.090;2024-03-22T13:55:48;105.83;;;102.23;;
13605;SDS011;6874;52.084;5.090;2024-03-22T13:58:14;105.80;;;102.13;;
13605;SDS011;6874;52.084;5.090;2024-03-22T14:00:55;122.53;;;118.23;;
13605;SDS011;6874;52.084;5.090;2024-03-22T14:03:21;132.77;;;128.07;;
13605;SDS011;6874;52.084;5.090;2024-03-22T14:05:46;135.13;;;130.43;;
13605;SDS011;6874;52.084;5.090;2024-03-22T14:08:12;141.93;;;136.93;;
13605;SDS011;6874;52.084;5.090;2024-03-22T14:10:48;140.83;;;135.87;;
13605;SDS011;6874;52.084;5.090;2024-03-22T14:13:13;145.37;;;140.30;;
13605;SDS011;6874;52.084;5.090;2024-03-22T14:15:40;147.50;;;142.20;;
13605;SDS011;6874;52.084;5.090;2024-03-22T14:18:05;158.90;;;153.33;;
13605;SDS011;6874;52.084;5.090;2024-03-22T14:20:31;157.23;;;151.60;;
13605;SDS011;6874;52.084;5.090;2024-03-22T14:22:57;163.33;;;157.53;;
13605;SDS011;6874;52.084;5.090;2024-03-22T14:25:22;155.07;;;149.50;;
13605;SDS011;6874;52.084;5.090;2024-03-22T14:27:48;158.43;;;152.80;;